aviador You're here:

KCDI Decoded Metar

in
Report Time2017-06-25 13:33:00
UTC Time2017-06-25 13:59:12
Flight Rules vfr VFR
Wind270° at 04 kt
W.Decomp.*RWY 22: 2.6 kt HW 3.1 kt RCW
Visibility9999 m
Phenomena:N/A
Clouds:Scattered 002 Hf
Expected CloudBase > 3,200 ft AGL from Temp-Dew spread
CeilingNone
Temp20°C
Dew Point12°C (60% RH)
AAT19.2°C
QNH1020 hPa
Raw Report
KCDI 251333Z AUTO 27004KT 10SM SCT002 20/12 A3012 RMK AO2
T01960124=

Extra information for KCDI:More info

Social comments